Ringsted, Iowa
Current Conditions -  °F | °C
As of 5:52 AM on Sunday 23 Nov 2014 (Local Time) from KEST Reporting Station
Haze Haze  
Wind Chill: 45°   Ceiling: 300
Heat Index: 49°   Visibility: 4mi
Dew Point: 48°   Wind: 10mph
Humidity: 97%   Direction: 190°S
Pressure: 29.44"   Gusts: NA
Location:  43.29°N, 94.51°W
Report Text: KEST 231152Z AUTO 19009KT 4SM BR OVC003 09/09 A2944 RMK AO2 SLP976 T00940089 10106 20083 55007
Loading
Personal Weather Stations






























Interactive Weather Map New forecast layout! Learn more

10-Day Weather Forecast

Advertisements
Track Severe Weather on mobile